Time;durP1;ratioP1;P1;durP2;ratioP2;P2;SDS_P1;SDS_P2;PMS_P1;PMS_P2;Temp;Humidity;BMP_temperature;BMP_pressure;BME280_temperature;BME280_humidity;BME280_pressure;Samples;Min_cycle;Max_cycle;Signal;HPM_P1;HPM_P2
2022/03/06 00:00:34;;;;;;;;;;;;;;;20.36;44.37;100758.66;20651962;28;98691;-79
2022/03/06 00:10:34;;;;;;;;;;;;;;;20.33;44.31;100766.78;20659176;28;100047;-78
2022/03/06 00:20:35;;;;;;;;;;;;;;;20.31;44.12;100770.34;20640400;27;98351;-79
2022/03/06 00:30:35;;;;;;;;;;;;;;;20.25;44.13;100770.75;20635756;28;98506;-79
2022/03/06 00:40:36;;;;;;;;;;;;;;;20.23;44.38;100771.81;20636245;27;98932;-78
2022/03/06 00:50:37;;;;;;;;;;;;;;;20.23;44.23;100766.56;20630082;28;97888;-79
2022/03/06 01:00:39;;;;;;;;;;;;;;;20.19;44.12;100768.53;20630803;27;97850;-78
2022/03/06 01:10:42;;;;;;;;;;;;;;;20.17;44.12;100765.16;20639057;28;97578;-80
2022/03/06 01:20:44;;;;;;;;;;;;;;;20.14;44.21;100757.47;20659999;28;98134;-79
2022/03/06 01:30:44;;;;;;;;;;;;;;;20.09;44.04;100735.91;20638066;28;100007;-79
2022/03/06 01:40:45;;;;;;;;;;;;;;;20.05;44.36;100729.19;20608996;28;1256839;-79
2022/03/06 01:50:45;;;;;;;;;;;;;;;20.03;44.34;100718.78;20660032;28;97131;-78
2022/03/06 02:00:48;;;;;;;;;;;;;;;20.02;44.25;100710.97;20691706;27;98244;-79
2022/03/06 02:10:50;;;;;;;;;;;;;;;19.98;44.04;100700.69;20672746;28;100432;-82
2022/03/06 02:21:20;;;;;;;;;;;;;;;19.93;43.70;100702.78;20664413;27;97899;-80
2022/03/06 02:31:20;;;;;;;;;;;;;;;19.91;44.13;100698.56;20669162;27;99949;-79
2022/03/06 02:41:21;;;;;;;;;;;;;;;19.88;43.88;100704.03;20669669;28;97003;-79
2022/03/06 02:51:21;;;;;;;;;;;;;;;19.87;44.13;100705.81;20659493;27;97009;-79
2022/03/06 03:01:22;;;;;;;;;;;;;;;19.92;43.51;100703.72;20668623;27;97772;-80
2022/03/06 03:11:22;;;;;;;;;;;;;;;19.89;43.71;100703.91;20666164;28;96908;-79
2022/03/06 03:21:23;;;;;;;;;;;;;;;19.87;43.70;100704.97;20665344;28;99706;-80
2022/03/06 03:31:23;;;;;;;;;;;;;;;19.88;43.74;100701.41;20657154;28;98046;-79
2022/03/06 03:41:24;;;;;;;;;;;;;;;19.86;43.80;100706.78;20646550;28;99017;-78
2022/03/06 03:51:25;;;;;;;;;;;;;;;19.87;43.61;100712.84;20628688;28;97485;-79
2022/03/06 04:01:25;;;;;;;;;;;;;;;19.84;43.48;100730.50;20640751;28;100959;-78
2022/03/06 04:11:26;;;;;;;;;;;;;;;19.80;43.79;100734.25;20688509;28;99108;-79
2022/03/06 04:21:28;;;;;;;;;;;;;;;19.81;43.62;100738.56;20663961;27;98407;-81
2022/03/06 04:31:28;;;;;;;;;;;;;;;19.78;43.63;100737.94;20687393;28;97178;-80
2022/03/06 04:41:29;;;;;;;;;;;;;;;19.80;43.56;100739.50;20708731;27;102354;-80
2022/03/06 04:51:33;;;;;;;;;;;;;;;19.80;43.56;100739.50;20685513;27;97922;-79
2022/03/06 05:01:33;;;;;;;;;;;;;;;19.80;43.42;100743.94;20667371;27;98525;-80
2022/03/06 05:11:34;;;;;;;;;;;;;;;19.86;43.13;100747.97;20659700;27;99998;-80
2022/03/06 05:21:35;;;;;;;;;;;;;;;19.95;42.91;100755.25;20666215;27;97501;-79
2022/03/06 05:31:35;;;;;;;;;;;;;;;20.03;42.54;100752.97;20629681;27;99197;-79
2022/03/06 05:41:36;;;;;;;;;;;;;;;20.07;42.82;100757.06;20642553;27;97698;-79
2022/03/06 05:51:37;;;;;;;;;;;;;;;20.14;42.51;100749.59;20641689;27;97843;-78
2022/03/06 06:01:38;;;;;;;;;;;;;;;20.21;42.18;100760.53;20653400;27;98084;-79
2022/03/06 06:11:38;;;;;;;;;;;;;;;20.26;41.93;100755.81;20651896;27;97019;-79
2022/03/06 06:21:43;;;;;;;;;;;;;;;20.32;42.31;100744.88;20675994;28;97987;-79
2022/03/06 06:31:43;;;;;;;;;;;;;;;20.43;42.85;100747.63;20670717;28;99171;-79
2022/03/06 06:41:45;;;;;;;;;;;;;;;20.57;43.46;100735.31;20662989;28;101345;-77
2022/03/06 06:51:45;;;;;;;;;;;;;;;20.58;43.65;100745.72;20654654;28;99955;-77
2022/03/06 07:01:45;;;;;;;;;;;;;;;20.67;43.28;100746.88;20674347;28;97336;-79
2022/03/06 07:11:46;;;;;;;;;;;;;;;20.73;43.23;100751.75;20688392;27;97680;-80
2022/03/06 07:21:48;;;;;;;;;;;;;;;20.81;43.46;100759.09;20722281;27;97380;-80
2022/03/06 07:31:48;;;;;;;;;;;;;;;20.87;43.15;100749.94;20704590;27;97679;-83
2022/03/06 07:41:51;;;;;;;;;;;;;;;20.93;43.58;100749.50;20653076;27;97958;-79
2022/03/06 07:51:52;;;;;;;;;;;;;;;20.98;43.33;100744.75;20693753;28;97377;-79
2022/03/06 08:01:54;;;;;;;;;;;;;;;21.01;43.46;100741.91;20697517;27;96970;-80
2022/03/06 08:11:55;;;;;;;;;;;;;;;21.04;43.26;100733.78;20708680;27;96957;-82
2022/03/06 08:21:56;;;;;;;;;;;;;;;21.08;43.13;100737.88;20627959;27;97112;-80
2022/03/06 08:31:56;;;;;;;;;;;;;;;21.09;43.16;100723.78;20696799;28;97442;-78
2022/03/06 08:41:57;;;;;;;;;;;;;;;21.15;43.41;100709.31;20703485;27;99464;-80
2022/03/06 08:51:59;;;;;;;;;;;;;;;20.79;35.98;100713.63;20692087;28;99870;-80
2022/03/06 09:01:59;;;;;;;;;;;;;;;20.92;38.32;100713.59;20691431;28;96973;-80
2022/03/06 09:11:59;;;;;;;;;;;;;;;20.95;39.48;100706.31;20693500;27;98133;-80
2022/03/06 09:22:01;;;;;;;;;;;;;;;21.00;39.54;100702.53;20689490;28;98066;-80
2022/03/06 09:32:01;;;;;;;;;;;;;;;21.01;39.97;100697.16;20691757;27;97957;-81
2022/03/06 09:42:03;;;;;;;;;;;;;;;21.02;40.03;100683.03;20701572;28;97444;-79
2022/03/06 09:52:03;;;;;;;;;;;;;;;21.10;40.95;100674.56;20704265;28;97297;-83
2022/03/06 10:02:05;;;;;;;;;;;;;;;21.14;40.74;100677.81;20713513;28;98962;-80
2022/03/06 10:12:16;;;;;;;;;;;;;;;21.21;41.10;100673.81;20699779;28;96954;-79
2022/03/06 10:22:20;;;;;;;;;;;;;;;21.28;41.75;100675.03;20702328;27;97411;-81
2022/03/06 10:32:21;;;;;;;;;;;;;;;21.28;40.87;100660.06;20690982;27;97501;-83
2022/03/06 10:42:22;;;;;;;;;;;;;;;20.15;28.89;100649.59;20667481;27;98940;-79
2022/03/06 10:52:23;;;;;;;;;;;;;;;20.73;33.11;100633.31;20648047;27;97589;-77
2022/03/06 11:02:24;;;;;;;;;;;;;;;21.08;35.23;100615.91;20662533;27;99562;-78
2022/03/06 11:12:24;;;;;;;;;;;;;;;21.39;38.90;100596.03;20653764;28;97532;-78
2022/03/06 11:22:29;;;;;;;;;;;;;;;21.60;42.95;100587.50;20655212;28;97209;-80
2022/03/06 11:32:31;;;;;;;;;;;;;;;21.85;44.84;100575.06;20686471;28;97116;-80
2022/03/06 11:42:50;;;;;;;;;;;;;;;21.99;44.45;100563.47;20671920;28;97544;-78
2022/03/06 11:52:53;;;;;;;;;;;;;;;22.06;44.96;100556.78;20668742;27;97160;-80
2022/03/06 12:02:56;;;;;;;;;;;;;;;22.15;44.49;100544.66;20694044;28;97682;-80
2022/03/06 12:12:57;;;;;;;;;;;;;;;22.23;44.19;100529.06;20680325;28;97980;-79
2022/03/06 12:23:02;;;;;;;;;;;;;;;22.28;43.80;100520.78;20693805;28;97303;-79
2022/03/06 12:33:21;;;;;;;;;;;;;;;22.27;43.43;100504.09;20688320;27;96978;-78
2022/03/06 12:43:22;;;;;;;;;;;;;;;22.32;43.15;100493.19;20671266;28;97127;-79
2022/03/06 12:53:22;;;;;;;;;;;;;;;22.20;39.17;100489.72;20680542;27;99046;-79
2022/03/06 13:03:25;;;;;;;;;;;;;;;22.31;40.52;100479.13;20679488;28;97810;-79
2022/03/06 13:13:27;;;;;;;;;;;;;;;22.44;41.26;100480.84;20675355;28;96960;-79
2022/03/06 13:23:31;;;;;;;;;;;;;;;22.52;41.15;100481.88;20690893;28;100307;-78
2022/03/06 13:33:31;;;;;;;;;;;;;;;22.59;41.17;100465.56;20704156;27;98170;-78
2022/03/06 13:43:34;;;;;;;;;;;;;;;22.61;41.65;100461.00;20654305;27;97467;-78
2022/03/06 13:53:34;;;;;;;;;;;;;;;22.52;41.87;100460.78;20644840;28;98195;-78
2022/03/06 14:03:36;;;;;;;;;;;;;;;22.53;42.40;100453.69;20665329;28;98411;-77
2022/03/06 14:13:36;;;;;;;;;;;;;;;22.51;42.07;100463.56;20649339;28;97428;-79
2022/03/06 14:23:36;;;;;;;;;;;;;;;22.46;42.22;100461.28;20670191;28;101213;-78
2022/03/06 14:33:37;;;;;;;;;;;;;;;22.43;41.70;100455.41;20675266;28;97656;-80
2022/03/06 14:43:39;;;;;;;;;;;;;;;22.40;41.58;100443.31;20677547;28;99054;-80
2022/03/06 14:53:41;;;;;;;;;;;;;;;22.38;41.49;100443.41;20688313;27;97668;-80
2022/03/06 15:03:42;;;;;;;;;;;;;;;22.39;42.46;100439.00;20684020;27;98670;-79
2022/03/06 15:13:44;;;;;;;;;;;;;;;22.33;42.03;100432.38;20618867;27;100420;-81
2022/03/06 15:23:46;;;;;;;;;;;;;;;22.32;41.54;100430.69;20665218;27;97036;-78
2022/03/06 15:33:52;;;;;;;;;;;;;;;22.28;42.33;100426.66;20694028;28;100997;-79
2022/03/06 15:43:52;;;;;;;;;;;;;;;22.25;41.42;100418.97;20693445;27;97617;-81
2022/03/06 15:53:53;;;;;;;;;;;;;;;22.22;39.66;100424.50;20683781;27;97936;-85
2022/03/06 16:03:53;;;;;;;;;;;;;;;22.22;39.92;100424.50;20677488;27;97742;-81
2022/03/06 16:13:54;;;;;;;;;;;;;;;22.21;40.22;100422.84;20698670;28;98272;-82
2022/03/06 16:23:54;;;;;;;;;;;;;;;22.21;40.29;100426.28;20714609;27;98269;-82
2022/03/06 16:33:55;;;;;;;;;;;;;;;22.21;40.75;100428.94;20711380;28;97783;-84
2022/03/06 16:43:55;;;;;;;;;;;;;;;22.22;40.73;100433.25;20703081;28;98189;-83
2022/03/06 16:53:55;;;;;;;;;;;;;;;22.25;40.25;100439.25;20703316;27;97116;-83
2022/03/06 17:03:55;;;;;;;;;;;;;;;22.27;40.51;100445.25;20707670;27;97354;-83
2022/03/06 17:13:56;;;;;;;;;;;;;;;22.22;41.03;100459.63;20709396;28;100717;-84
2022/03/06 17:23:56;;;;;;;;;;;;;;;22.22;40.99;100458.81;20720224;28;100193;-84
2022/03/06 17:33:59;;;;;;;;;;;;;;;22.19;40.42;100464.31;20717055;27;98726;-82
2022/03/06 17:44:02;;;;;;;;;;;;;;;22.22;40.89;100466.72;20695630;28;98494;-83
2022/03/06 17:54:02;;;;;;;;;;;;;;;22.25;41.11;100476.19;20726117;28;98495;-82
2022/03/06 18:04:07;;;;;;;;;;;;;;;22.31;41.92;100481.78;20705293;27;100602;-80
2022/03/06 18:14:09;;;;;;;;;;;;;;;22.34;44.33;100494.72;20686208;28;97143;-80
2022/03/06 18:24:10;;;;;;;;;;;;;;;22.40;42.88;100490.81;20680785;28;100089;-79
2022/03/06 18:34:12;;;;;;;;;;;;;;;22.45;44.66;100504.47;20710209;28;97876;-80
2022/03/06 18:44:13;;;;;;;;;;;;;;;22.48;43.97;100503.38;20689466;28;97798;-79
2022/03/06 18:54:14;;;;;;;;;;;;;;;22.49;45.33;100503.22;20677986;27;97158;-80
2022/03/06 19:04:16;;;;;;;;;;;;;;;22.52;45.27;100515.34;20688275;27;98200;-79
2022/03/06 19:14:17;;;;;;;;;;;;;;;22.51;45.50;100516.31;20687126;27;97108;-80
2022/03/06 19:24:19;;;;;;;;;;;;;;;21.46;37.12;100512.13;20680747;28;97907;-79
2022/03/06 19:34:20;;;;;;;;;;;;;;;22.01;40.78;100516.75;20693670;28;98229;-79
2022/03/06 19:44:21;;;;;;;;;;;;;;;22.01;41.53;100520.22;20656348;28;98573;-80
2022/03/06 19:54:22;;;;;;;;;;;;;;;21.96;41.73;100526.78;20694673;27;98534;-80
2022/03/06 20:04:30;;;;;;;;;;;;;;;21.89;42.98;100531.72;20703262;28;97022;-80
2022/03/06 20:14:31;;;;;;;;;;;;;;;21.84;42.46;100518.91;20681335;28;98985;-79
2022/03/06 20:24:32;;;;;;;;;;;;;;;21.80;42.74;100527.16;20689992;28;97058;-80
2022/03/06 20:34:32;;;;;;;;;;;;;;;21.74;43.24;100531.94;20693706;28;97018;-79
2022/03/06 20:44:33;;;;;;;;;;;;;;;21.68;43.15;100534.22;20706668;28;99728;-80
2022/03/06 20:54:33;;;;;;;;;;;;;;;21.64;43.85;100535.41;20711860;28;97162;-79
2022/03/06 21:04:34;;;;;;;;;;;;;;;21.60;43.44;100534.81;20688818;27;97521;-81
2022/03/06 21:14:35;;;;;;;;;;;;;;;21.56;43.58;100536.84;20683073;28;97305;-79
2022/03/06 21:24:36;;;;;;;;;;;;;;;21.52;43.94;100530.09;20700314;28;98973;-80
2022/03/06 21:34:38;;;;;;;;;;;;;;;21.48;43.54;100535.72;20680422;27;99768;-79
2022/03/06 21:44:39;;;;;;;;;;;;;;;21.47;45.29;100534.03;20685091;27;97321;-79
2022/03/06 21:54:40;;;;;;;;;;;;;;;21.46;44.36;100537.63;20702997;28;97283;-79
2022/03/06 22:04:41;;;;;;;;;;;;;;;21.42;44.42;100537.00;20681621;28;97684;-79
2022/03/06 22:14:42;;;;;;;;;;;;;;;21.37;44.49;100534.75;20696463;27;97949;-79
2022/03/06 22:24:43;;;;;;;;;;;;;;;21.32;44.79;100531.59;20669442;27;97786;-80
2022/03/06 22:34:44;;;;;;;;;;;;;;;21.23;45.20;100540.22;20645742;28;100176;-79
2022/03/06 22:44:45;;;;;;;;;;;;;;;21.20;44.77;100529.91;20637655;28;98292;-79
2022/03/06 22:54:46;;;;;;;;;;;;;;;21.18;44.72;100534.44;20639453;28;98461;-78
2022/03/06 23:15:05;;;;;;;;;;;;;;;21.06;44.55;100521.25;20616980;28;99984;-78
2022/03/06 23:25:08;;;;;;;;;;;;;;;20.99;45.13;100527.91;20643085;28;98167;-80
2022/03/06 23:35:09;;;;;;;;;;;;;;;20.99;44.65;100533.19;20651619;27;98958;-80
2022/03/06 23:45:10;;;;;;;;;;;;;;;20.93;44.58;100531.00;20619617;28;97680;-78
2022/03/06 23:55:10;;;;;;;;;;;;;;;20.88;44.76;100533.16;20621888;27;97704;-78
